Time;durP1;ratioP1;P1;durP2;ratioP2;P2;SDS_P1;SDS_P2;PMS_P1;PMS_P2;Temp;Humidity;BMP_temperature;BMP_pressure;BME280_temperature;BME280_humidity;BME280_pressure;Samples;Min_cycle;Max_cycle;Signal;HPM_P1;HPM_P2
2022/03/14 00:09:36;;;;;;;0.52;0.40;;;;;;;24.51;27.36;101618.81;10483747;28;20055;-77
2022/03/14 00:14:37;;;;;;;0.32;0.20;;;;;;;25.25;25.93;101627.72;10528354;28;20127;-78
2022/03/14 00:19:40;;;;;;;0.40;0.40;;;;;;;26.35;24.55;101626.66;10515509;28;20119;-77
2022/03/14 00:24:42;;;;;;;0.82;0.10;;;;;;;26.57;24.44;101627.75;10518883;28;20073;-77
2022/03/14 00:29:43;;;;;;;0.20;0.20;;;;;;;24.58;27.23;101644.13;10538470;28;20071;-77
2022/03/14 00:34:45;;;;;;;0.13;0.13;;;;;;;24.01;27.28;101634.72;10527467;28;20089;-77
2022/03/14 00:39:47;;;;;;;0.40;0.40;;;;;;;25.35;25.41;101634.47;10525130;28;20472;-77
2022/03/14 00:44:49;;;;;;;0.00;0.00;;;;;;;26.36;24.41;101625.75;10528577;28;20044;-77
2022/03/14 00:49:51;;;;;;;0.10;0.10;;;;;;;25.86;24.34;101635.00;10524018;28;20415;-77
2022/03/14 00:54:53;;;;;;;1.75;0.75;;;;;;;24.00;27.93;101648.75;10533601;28;20093;-77
2022/03/14 00:59:55;;;;;;;0.20;0.20;;;;;;;23.81;27.47;101653.44;10540077;28;20036;-77
2022/03/14 01:04:57;;;;;;;2.50;1.52;;;;;;;23.50;27.90;101659.22;10529143;28;20128;-77
2022/03/14 01:09:58;;;;;;;0.22;0.17;;;;;;;24.33;27.35;101664.81;10518971;28;20048;-77
2022/03/14 01:15:03;;;;;;;0.95;0.60;;;;;;;22.85;29.20;101678.53;10535357;28;20118;-77
2022/03/14 01:20:06;;;;;;;0.05;0.03;;;;;;;24.93;26.45;101678.56;10536068;28;20050;-77
2022/03/14 01:25:08;;;;;;;0.00;0.00;;;;;;;25.79;25.50;101675.66;10525408;28;20453;-78
2022/03/14 01:30:11;;;;;;;0.10;0.10;;;;;;;26.37;24.23;101675.03;10537912;28;20060;-78
2022/03/14 01:35:17;;;;;;;0.30;0.20;;;;;;;26.22;24.19;101685.13;10545527;27;20051;-77
2022/03/14 01:40:24;;;;;;;0.35;0.25;;;;;;;25.43;25.50;101683.59;10513176;28;20075;-77
2022/03/14 01:45:25;;;;;;;0.85;0.65;;;;;;;25.50;25.58;101685.19;10533842;28;20075;-77
2022/03/14 01:50:27;;;;;;;1.30;0.57;;;;;;;24.35;27.21;101703.38;10537900;28;20123;-77
2022/03/14 01:55:29;;;;;;;2.00;1.23;;;;;;;23.24;28.38;101702.56;10516298;28;20101;-77
2022/03/14 02:00:34;;;;;;;1.25;0.65;;;;;;;23.98;27.72;101704.06;10534834;28;20036;-77
2022/03/14 02:05:37;;;;;;;1.35;0.80;;;;;;;23.81;28.08;101696.44;10509418;28;20601;-77
2022/03/14 02:10:42;;;;;;;1.00;0.82;;;;;;;23.47;29.01;101688.22;10513195;28;20032;-77
2022/03/14 02:15:45;;;;;;;1.65;0.85;;;;;;;24.46;27.28;101695.28;10553334;27;20495;-77
2022/03/14 02:20:47;;;;;;;1.45;0.70;;;;;;;24.22;27.61;101709.78;10518255;28;20044;-77
2022/03/14 02:25:50;;;;;;;1.58;0.85;;;;;;;22.88;30.06;101712.66;10523301;28;20093;-77
2022/03/14 02:31:03;;;;;;;0.90;0.68;;;;;;;23.44;29.13;101708.41;10528019;28;20043;-77
2022/03/14 02:36:05;;;;;;;1.75;0.88;;;;;;;23.56;29.06;101717.00;10555927;28;20052;-77
2022/03/14 02:41:06;;;;;;;3.08;1.65;;;;;;;22.73;30.25;101714.59;10530474;28;20080;-78
2022/03/14 02:46:08;;;;;;;1.02;0.70;;;;;;;23.29;29.59;101703.38;10559516;28;20051;-78
2022/03/14 02:51:10;;;;;;;3.20;1.90;;;;;;;21.15;32.86;101721.13;10549267;28;20043;-76
2022/03/14 02:56:11;;;;;;;1.38;0.90;;;;;;;22.80;29.95;101726.78;10530301;28;20155;-76
2022/03/14 03:01:14;;;;;;;2.72;1.77;;;;;;;21.58;32.73;101721.75;10528552;28;20067;-77
2022/03/14 03:06:17;;;;;;;1.13;0.80;;;;;;;22.60;32.04;101734.03;10528000;28;20157;-78
2022/03/14 03:11:22;;;;;;;0.43;0.35;;;;;;;23.77;29.98;101729.81;10537454;28;20051;-77
2022/03/14 03:16:24;;;;;;;0.65;0.47;;;;;;;22.22;32.31;101748.38;10528855;28;20064;-77
2022/03/14 03:21:27;;;;;;;2.55;1.10;;;;;;;22.20;31.94;101758.88;10524138;28;20071;-77
2022/03/14 03:26:29;;;;;;;2.53;0.85;;;;;;;22.65;32.24;101766.34;10538316;28;20040;-78
2022/03/14 03:31:30;;;;;;;3.08;2.00;;;;;;;21.57;33.97;101768.09;10525671;28;20079;-77
2022/03/14 03:36:32;;;;;;;2.08;1.15;;;;;;;21.13;34.71;101783.13;10520939;28;20051;-78
2022/03/14 03:41:34;;;;;;;3.78;2.38;;;;;;;20.17;36.60;101785.91;10537865;28;20510;-78
2022/03/14 03:46:38;;;;;;;4.75;2.30;;;;;;;21.01;35.52;101806.78;10540847;27;20042;-78
2022/03/14 03:51:40;;;;;;;1.75;1.00;;;;;;;22.03;34.22;101795.75;10529937;28;20483;-77
2022/03/14 03:56:41;;;;;;;0.57;0.38;;;;;;;22.74;32.56;101808.28;10531748;28;20481;-77
2022/03/14 04:01:43;;;;;;;2.20;1.55;;;;;;;21.38;34.98;101827.59;10509592;28;20074;-78
2022/03/14 04:06:47;;;;;;;1.10;0.45;;;;;;;21.40;35.27;101842.44;10506720;28;20048;-78
2022/03/14 04:11:49;;;;;;;4.03;2.55;;;;;;;20.45;37.18;101846.09;10526968;28;20044;-78
2022/03/14 04:16:51;;;;;;;4.63;2.72;;;;;;;19.65;39.59;101865.13;10532052;28;20036;-79
2022/03/14 04:21:52;;;;;;;0.15;0.10;;;;;;;22.32;35.62;101850.66;10530644;28;20051;-80
2022/03/14 04:26:54;;;;;;;4.10;2.38;;;;;;;21.09;37.25;101862.63;10527288;28;20482;-79
2022/03/14 04:31:57;;;;;;;3.13;1.75;;;;;;;21.11;38.32;101866.09;10525601;28;20032;-80
2022/03/14 04:36:59;;;;;;;5.10;2.53;;;;;;;21.06;38.92;101866.16;10539042;28;20475;-81
2022/03/14 04:42:00;;;;;;;5.68;3.08;;;;;;;20.42;39.82;101864.44;10536116;28;20054;-81
2022/03/14 04:47:03;;;;;;;3.92;2.65;;;;;;;20.95;38.96;101874.91;10538094;28;20128;-81
2022/03/14 04:52:05;;;;;;;3.25;1.83;;;;;;;21.11;38.91;101876.59;10521029;28;20138;-81
2022/03/14 04:57:06;;;;;;;5.60;3.55;;;;;;;19.82;40.76;101893.94;10526644;28;20059;-82
2022/03/14 05:02:08;;;;;;;3.72;2.03;;;;;;;21.20;38.95;101891.44;10526643;28;20476;-82
2022/03/14 05:07:10;;;;;;;4.28;2.17;;;;;;;20.59;39.48;101898.47;10534048;28;20119;-81
2022/03/14 05:12:14;;;;;;;5.78;2.13;;;;;;;21.01;38.62;101903.69;10515167;28;20087;-80
2022/03/14 05:17:16;;;;;;;9.60;5.75;;;;;;;19.26;42.92;101918.97;10522813;28;20040;-81
2022/03/14 05:22:20;;;;;;;4.55;2.45;;;;;;;20.70;39.96;101912.41;10549208;27;20040;-81
2022/03/14 05:27:24;;;;;;;9.32;6.50;;;;;;;18.51;44.49;101933.13;10532090;28;20028;-81
2022/03/14 05:32:27;;;;;;;4.47;2.15;;;;;;;19.91;41.07;101935.84;10533455;28;20462;-80
2022/03/14 05:37:30;;;;;;;2.70;1.30;;;;;;;20.97;38.90;101936.00;10543875;27;20051;-80
2022/03/14 05:42:31;;;;;;;5.38;3.15;;;;;;;19.93;41.96;101951.53;10536581;28;20495;-81
2022/03/14 05:47:33;;;;;;;1.02;0.80;;;;;;;21.09;39.44;101956.97;10536158;28;20123;-79
2022/03/14 05:52:36;;;;;;;9.25;4.85;;;;;;;19.62;41.99;101970.53;10536141;28;20111;-80
2022/03/14 05:57:39;;;;;;;2.78;1.75;;;;;;;20.95;39.24;101971.81;10517515;28;20139;-79
2022/03/14 06:02:47;;;;;;;8.82;6.03;;;;;;;20.84;39.68;101975.31;10495912;28;20044;-80
2022/03/14 06:07:49;;;;;;;13.23;3.70;;;;;;;20.83;38.93;101981.41;10516282;28;20379;-79
2022/03/14 06:12:51;;;;;;;4.90;3.33;;;;;;;20.05;40.25;101995.19;10516729;28;20040;-79
2022/03/14 06:17:53;;;;;;;8.77;4.22;;;;;;;20.12;39.38;101996.97;10544261;27;20036;-80
2022/03/14 06:22:54;;;;;;;3.85;2.33;;;;;;;21.05;36.60;102002.34;10532533;28;20544;-80
2022/03/14 06:27:56;;;;;;;1.65;1.15;;;;;;;21.94;35.77;102013.56;10530664;28;20440;-80
2022/03/14 06:32:57;;;;;;;1.02;0.75;;;;;;;22.41;34.99;102023.00;10520704;28;20048;-80
2022/03/14 06:38:02;;;;;;;2.55;1.60;;;;;;;22.29;34.56;102029.16;10527157;28;20064;-80
2022/03/14 06:43:05;;;;;;;3.28;1.63;;;;;;;23.04;33.40;102034.84;10540698;28;20052;-81
2022/03/14 06:48:07;;;;;;;2.08;1.17;;;;;;;23.05;33.04;102044.44;10533663;28;20091;-81
2022/03/14 06:53:09;;;;;;;2.25;0.98;;;;;;;22.98;33.35;102048.00;10530575;28;20035;-80
2022/03/14 06:58:11;;;;;;;1.27;1.00;;;;;;;21.74;35.33;102056.47;10523423;28;20040;-80
2022/03/14 07:03:14;;;;;;;2.13;0.70;;;;;;;23.21;33.35;102061.00;10541045;28;20075;-79
2022/03/14 07:08:16;;;;;;;1.67;1.23;;;;;;;23.31;33.16;102064.41;10522446;28;20052;-80
2022/03/14 07:13:17;;;;;;;2.92;0.68;;;;;;;23.03;33.18;102075.13;10541456;28;20139;-80
2022/03/14 07:18:19;;;;;;;1.20;0.47;;;;;;;22.87;33.77;102084.00;10536020;28;20044;-79
2022/03/14 07:23:20;;;;;;;7.32;3.47;;;;;;;21.70;34.93;102086.22;10538158;28;20452;-79
2022/03/14 07:28:22;;;;;;;0.25;0.25;;;;;;;22.61;34.20;102100.78;10540717;28;20122;-79
2022/03/14 07:33:24;;;;;;;0.32;0.32;;;;;;;23.11;32.92;102110.13;10522956;28;20109;-79
2022/03/14 07:38:26;;;;;;;1.10;0.52;;;;;;;23.17;32.82;102110.97;10522056;28;20499;-79
2022/03/14 07:43:28;;;;;;;1.17;0.90;;;;;;;23.40;32.36;102118.69;10521629;28;20514;-79
2022/03/14 07:48:31;;;;;;;10.50;6.13;;;;;;;22.12;34.01;102121.09;10540388;28;20040;-79
2022/03/14 07:53:32;;;;;;;4.28;1.30;;;;;;;23.95;31.40;102130.47;10522631;28;20075;-79
2022/03/14 07:58:34;;;;;;;0.52;0.43;;;;;;;23.91;31.72;102134.00;10539262;28;20044;-79
2022/03/14 08:03:35;;;;;;;3.42;2.22;;;;;;;23.02;32.83;102154.88;10550175;28;20106;-79
2022/03/14 08:08:41;;;;;;;0.30;0.28;;;;;;;23.89;32.11;102162.06;10522649;28;20036;-79
2022/03/14 08:13:43;;;;;;;7.38;2.45;;;;;;;23.50;32.46;102159.81;10522623;28;20568;-79
2022/03/14 08:18:49;;;;;;;5.10;2.10;;;;;;;23.23;32.81;102163.50;10519732;28;20288;-79
2022/03/14 08:23:50;;;;;;;6.63;3.38;;;;;;;22.16;33.82;102169.22;10537463;28;20418;-79
2022/03/14 08:28:52;;;;;;;0.63;0.60;;;;;;;23.38;32.31;102180.94;10520952;28;20110;-79
2022/03/14 08:33:54;;;;;;;3.17;1.52;;;;;;;24.49;30.41;102189.53;10520061;28;20075;-78
2022/03/14 08:38:56;;;;;;;7.05;2.50;;;;;;;23.08;32.86;102204.75;10539773;28;20097;-78
2022/03/14 08:43:57;;;;;;;0.30;0.30;;;;;;;24.92;30.25;102210.09;10538901;28;20437;-79
2022/03/14 08:48:59;;;;;;;2.55;1.40;;;;;;;24.10;31.20;102223.31;10538528;28;20491;-79
2022/03/14 08:54:01;;;;;;;3.72;2.10;;;;;;;24.70;30.46;102227.97;10519949;28;20064;-79
2022/03/14 08:59:04;;;;;;;11.93;4.32;;;;;;;24.64;30.55;102242.06;10521811;28;20063;-78
2022/03/14 09:04:06;;;;;;;2.72;1.83;;;;;;;25.08;29.74;102250.34;10519741;28;20471;-79
2022/03/14 09:09:10;;;;;;;17.63;3.25;;;;;;;24.55;30.40;102264.13;10520783;28;20063;-79
2022/03/14 09:14:11;;;;;;;2.28;1.70;;;;;;;24.94;30.50;102260.19;10538173;28;20128;-79
2022/03/14 09:19:14;;;;;;;8.75;1.17;;;;;;;26.18;28.67;102253.91;10520035;28;20540;-80
2022/03/14 09:24:15;;;;;;;3.40;2.05;;;;;;;25.23;29.60;102270.31;10538899;28;20063;-79
2022/03/14 09:29:17;;;;;;;5.75;3.40;;;;;;;23.67;31.63;102283.31;10520258;28;20048;-77
2022/03/14 09:34:18;;;;;;;2.65;1.55;;;;;;;24.31;30.82;102291.56;10538131;28;20055;-78
2022/03/14 09:39:20;;;;;;;0.75;0.63;;;;;;;25.33;29.56;102285.16;10503977;28;20036;-78
2022/03/14 09:44:26;;;;;;;2.55;1.55;;;;;;;24.38;30.17;102293.28;10520281;28;20082;-78
2022/03/14 09:49:31;;;;;;;3.70;2.03;;;;;;;24.26;29.80;102298.66;10538934;28;20137;-79
2022/03/14 09:54:35;;;;;;;12.57;5.18;;;;;;;24.27;30.15;102316.19;10520222;28;20068;-77
2022/03/14 09:59:37;;;;;;;9.35;4.57;;;;;;;23.40;32.23;102315.91;10536702;28;20156;-79
2022/03/14 10:04:39;;;;;;;3.28;2.10;;;;;;;24.71;30.48;102317.53;10519962;28;20071;-77
2022/03/14 10:09:42;;;;;;;6.28;3.78;;;;;;;24.27;30.41;102324.09;10537127;28;20040;-77
2022/03/14 10:14:43;;;;;;;10.20;4.95;;;;;;;24.84;30.42;102322.66;10519080;28;20544;-78
2022/03/14 10:19:56;;;;;;;2.95;1.40;;;;;;;25.62;29.63;102318.19;10536340;28;20044;-79
2022/03/14 10:25:09;;;;;;;9.82;5.63;;;;;;;22.69;32.75;102337.19;10536685;28;20127;-78
2022/03/14 10:30:20;;;;;;;12.85;5.03;;;;;;;24.85;30.29;102348.13;10517612;28;20044;-79
2022/03/14 10:35:22;;;;;;;8.25;5.25;;;;;;;25.05;29.72;102365.50;10535919;28;20521;-76
2022/03/14 10:40:33;;;;;;;19.83;9.05;;;;;;;23.72;31.74;102373.59;10516467;28;20127;-77
2022/03/14 10:45:37;;;;;;;4.80;2.72;;;;;;;24.26;30.68;102377.66;10535458;28;20084;-78
2022/03/14 10:50:40;;;;;;;12.27;5.07;;;;;;;24.05;30.82;102373.44;10533473;28;20044;-78
2022/03/14 10:55:46;;;;;;;14.30;8.82;;;;;;;23.33;31.54;102383.47;10522080;28;20388;-77
2022/03/14 11:00:53;;;;;;;9.45;4.68;;;;;;;25.02;30.04;102377.84;10532725;28;20082;-78
2022/03/14 11:06:01;;;;;;;5.38;2.42;;;;;;;25.52;28.86;102369.31;10546642;28;20131;-76
2022/03/14 11:11:10;;;;;;;14.32;5.20;;;;;;;25.33;28.96;102374.81;10535661;28;20447;-78
2022/03/14 11:16:21;;;;;;;12.13;6.05;;;;;;;26.02;28.37;102371.25;10535296;28;20093;-78
2022/03/14 11:21:25;;;;;;;7.40;4.38;;;;;;;25.48;28.79;102372.91;10551223;28;20051;-79
2022/03/14 11:26:27;;;;;;;5.57;3.47;;;;;;;25.27;29.19;102379.28;10542109;28;20454;-77
2022/03/14 11:31:29;;;;;;;0.70;0.65;;;;;;;26.75;27.03;102386.78;10545336;28;20040;-77
2022/03/14 11:36:32;;;;;;;3.78;0.82;;;;;;;26.64;27.16;102386.09;10545323;28;20593;-77
2022/03/14 11:41:34;;;;;;;13.13;4.55;;;;;;;24.36;28.92;102394.25;10545010;28;20098;-76
2022/03/14 11:46:37;;;;;;;9.32;5.38;;;;;;;25.66;28.11;102393.75;10544157;28;20568;-77
2022/03/14 11:51:41;;;;;;;0.43;0.32;;;;;;;26.52;26.72;102397.75;10542258;28;20047;-77
2022/03/14 11:56:53;;;;;;;4.82;2.30;;;;;;;27.51;26.18;102393.25;10543944;28;20044;-76
2022/03/14 12:02:00;;;;;;;13.27;6.75;;;;;;;24.60;28.61;102413.38;10520368;28;20109;-81
2022/03/14 12:07:03;;;;;;;15.23;6.35;;;;;;;25.16;28.54;102405.78;10552913;28;20048;-80
2022/03/14 12:12:14;;;;;;;4.38;2.45;;;;;;;25.75;27.00;102405.97;10519602;28;20040;-77
2022/03/14 12:17:15;;;;;;;8.80;3.75;;;;;;;25.63;26.97;102404.38;10539049;28;20066;-77
2022/03/14 12:22:29;;;;;;;5.82;2.13;;;;;;;24.51;28.16;102409.06;10521649;28;20124;-76
2022/03/14 12:27:36;;;;;;;0.20;0.20;;;;;;;26.96;26.38;102408.44;10541230;28;20437;-78
2022/03/14 12:32:50;;;;;;;0.00;0.00;;;;;;;28.05;25.42;102409.69;10539695;28;20076;-78
2022/03/14 12:37:57;;;;;;;0.10;0.10;;;;;;;26.85;25.16;102412.16;10520523;28;20519;-77
2022/03/14 12:43:21;;;;;;;0.80;0.57;;;;;;;25.76;26.64;102409.47;10554179;28;20067;-79
2022/03/14 12:48:29;;;;;;;3.42;0.88;;;;;;;26.83;25.87;102424.56;10520984;28;20529;-77
2022/03/14 12:53:31;;;;;;;6.45;0.90;;;;;;;28.40;24.59;102416.81;10539078;28;20119;-76
2022/03/14 12:58:33;;;;;;;0.00;0.00;;;;;;;27.95;25.86;102415.19;10538473;28;20076;-76
2022/03/14 13:03:36;;;;;;;1.15;0.68;;;;;;;27.02;25.47;102437.41;10537034;28;20575;-77
2022/03/14 13:08:49;;;;;;;4.50;1.88;;;;;;;26.95;25.25;102430.50;10537904;28;20036;-77
2022/03/14 13:13:51;;;;;;;0.10;0.10;;;;;;;27.51;24.87;102441.78;10520330;28;20510;-78
2022/03/14 13:18:53;;;;;;;0.00;0.00;;;;;;;27.01;25.55;102436.56;10520177;28;20029;-78
2022/03/14 13:24:02;;;;;;;0.50;0.50;;;;;;;27.22;25.78;102437.03;10520742;28;20127;-77
2022/03/14 13:29:04;;;;;;;1.40;1.13;;;;;;;27.86;25.32;102442.75;10538321;28;20044;-77
2022/03/14 13:34:08;;;;;;;2.03;1.15;;;;;;;26.70;25.98;102452.06;10533072;28;20123;-79
2022/03/14 13:39:14;;;;;;;0.47;0.38;;;;;;;26.87;25.50;102452.66;10518825;28;20090;-77
2022/03/14 13:44:19;;;;;;;6.45;2.72;;;;;;;26.43;25.93;102456.91;10533215;28;20067;-77
2022/03/14 13:49:24;;;;;;;0.90;0.60;;;;;;;26.58;25.72;102466.38;10528812;28;20143;-77
2022/03/14 13:54:30;;;;;;;2.80;1.65;;;;;;;27.29;25.50;102456.31;10533357;28;20068;-77
2022/03/14 13:59:39;;;;;;;0.00;0.00;;;;;;;28.37;24.51;102469.88;10536553;28;20044;-78
2022/03/14 14:04:46;;;;;;;9.55;3.47;;;;;;;25.87;27.19;102481.50;10515336;28;20039;-77
2022/03/14 14:09:54;;;;;;;0.47;0.47;;;;;;;27.23;25.46;102478.47;10517837;28;20048;-77
2022/03/14 14:15:08;;;;;;;0.08;0.08;;;;;;;27.13;25.49;102472.47;10550851;28;20051;-77
2022/03/14 14:20:18;;;;;;;1.85;0.77;;;;;;;28.48;24.68;102477.56;10519592;28;20119;-78
2022/03/14 14:25:32;;;;;;;11.27;5.72;;;;;;;27.24;25.46;102486.38;10535772;28;20064;-77
2022/03/14 14:30:43;;;;;;;0.82;0.70;;;;;;;28.48;24.17;102494.31;10526780;28;20044;-78
2022/03/14 14:35:50;;;;;;;8.80;4.45;;;;;;;27.13;25.14;102493.66;10529531;28;20047;-78
2022/03/14 14:40:57;;;;;;;13.93;3.50;;;;;;;27.18;25.18;102490.91;10535893;28;20048;-78
2022/03/14 14:46:00;;;;;;;1.02;0.82;;;;;;;28.22;24.08;102486.13;10518838;28;20162;-77
2022/03/14 14:51:03;;;;;;;0.30;0.30;;;;;;;28.25;23.37;102486.94;10517097;28;20044;-78
2022/03/14 14:56:07;;;;;;;2.30;1.40;;;;;;;28.39;23.10;102473.38;10537075;28;20354;-76
2022/03/14 15:01:10;;;;;;;0.68;0.55;;;;;;;28.68;23.01;102471.75;10556998;28;20131;-78
2022/03/14 15:06:14;;;;;;;1.80;1.17;;;;;;;28.43;23.23;102475.00;10544440;28;20036;-77
2022/03/14 15:11:15;;;;;;;0.57;0.57;;;;;;;29.05;22.21;102462.84;10557654;28;20063;-78
2022/03/14 15:16:22;;;;;;;7.20;3.38;;;;;;;27.47;22.86;102466.53;10555023;28;20540;-78
2022/03/14 15:21:25;;;;;;;1.17;0.80;;;;;;;27.00;23.92;102478.88;10502739;28;20070;-77
2022/03/14 15:26:27;;;;;;;0.10;0.10;;;;;;;27.50;24.08;102471.78;10541786;28;20056;-78
2022/03/14 15:31:33;;;;;;;0.38;0.38;;;;;;;28.25;23.53;102475.47;10535820;28;20136;-79
2022/03/14 15:36:37;;;;;;;4.88;1.42;;;;;;;28.01;24.35;102478.59;10558532;28;20032;-79
2022/03/14 15:41:39;;;;;;;0.00;0.00;;;;;;;27.44;23.47;102471.88;10534065;28;20044;-77
2022/03/14 15:46:40;;;;;;;0.03;0.00;;;;;;;27.80;24.12;102484.38;10542633;28;20102;-78
2022/03/14 15:51:42;;;;;;;0.00;0.00;;;;;;;27.86;23.33;102485.13;10520711;28;20036;-78
2022/03/14 15:56:46;;;;;;;1.00;0.28;;;;;;;28.10;23.30;102488.19;10523923;28;20044;-79
2022/03/14 16:01:49;;;;;;;0.80;0.43;;;;;;;27.94;23.56;102486.75;10538710;28;20040;-78
2022/03/14 16:06:51;;;;;;;0.47;0.20;;;;;;;28.87;22.85;102488.09;10535951;28;20043;-78
2022/03/14 16:11:53;;;;;;;4.53;2.25;;;;;;;26.79;24.08;102494.22;10524701;28;20456;-77
2022/03/14 16:16:56;;;;;;;0.00;0.00;;;;;;;28.06;22.87;102504.19;10537369;28;20402;-78
2022/03/14 16:21:59;;;;;;;0.00;0.00;;;;;;;28.77;22.50;102506.03;10520891;28;20072;-79
2022/03/14 16:27:02;;;;;;;0.08;0.03;;;;;;;28.45;21.44;102515.63;10522046;28;20122;-79
2022/03/14 16:32:04;;;;;;;0.00;0.00;;;;;;;28.99;21.57;102526.69;10524535;28;20069;-79
2022/03/14 16:37:05;;;;;;;0.00;0.00;;;;;;;28.39;22.56;102536.09;10530491;28;20495;-79
2022/03/14 16:42:07;;;;;;;0.20;0.20;;;;;;;28.56;22.50;102541.00;10530602;28;20465;-79
2022/03/14 16:47:10;;;;;;;0.05;0.05;;;;;;;28.40;23.02;102549.31;10539295;28;20040;-79
2022/03/14 16:52:12;;;;;;;0.00;0.00;;;;;;;28.70;22.74;102561.91;10515733;28;20040;-79
2022/03/14 16:57:18;;;;;;;0.70;0.22;;;;;;;26.21;25.60;102583.19;10536858;28;20126;-79
2022/03/14 17:02:20;;;;;;;1.25;0.55;;;;;;;26.89;24.73;102585.75;10525443;28;20036;-79
2022/03/14 17:07:22;;;;;;;2.20;0.77;;;;;;;25.04;26.35;102599.28;10502427;28;20062;-78
2022/03/14 17:12:24;;;;;;;2.85;0.98;;;;;;;25.35;26.27;102612.22;10536725;28;20044;-78
2022/03/14 17:17:26;;;;;;;1.70;1.58;;;;;;;25.62;25.53;102619.03;10530503;28;20078;-79
2022/03/14 17:22:29;;;;;;;0.20;0.13;;;;;;;25.61;25.53;102619.06;10499710;28;20044;-78
2022/03/14 17:27:31;;;;;;;0.00;0.00;;;;;;;26.33;24.40;102620.00;10514252;28;20074;-79
2022/03/14 17:32:33;;;;;;;0.13;0.13;;;;;;;25.53;25.10;102624.38;10517814;28;20131;-78
2022/03/14 17:37:39;;;;;;;1.75;1.23;;;;;;;25.33;25.90;102640.38;10535850;28;20439;-79
2022/03/14 17:42:41;;;;;;;0.00;0.00;;;;;;;25.31;26.22;102635.13;10534852;28;20492;-78
2022/03/14 17:47:43;;;;;;;4.93;2.60;;;;;;;24.73;27.13;102635.53;10535095;28;20042;-79
2022/03/14 17:52:46;;;;;;;0.20;0.10;;;;;;;25.35;26.25;102631.53;10498104;28;20544;-78
2022/03/14 17:57:47;;;;;;;3.75;1.27;;;;;;;25.88;25.66;102641.63;10547447;28;20054;-78
2022/03/14 18:02:49;;;;;;;0.00;0.00;;;;;;;26.33;24.71;102653.47;10514816;28;20039;-78
2022/03/14 18:07:51;;;;;;;1.83;0.50;;;;;;;25.81;25.62;102646.13;10533375;28;20052;-79
2022/03/14 18:12:53;;;;;;;0.00;0.00;;;;;;;27.13;23.53;102651.47;10521910;28;20094;-78
2022/03/14 18:17:58;;;;;;;0.47;0.30;;;;;;;25.99;24.93;102657.34;10496210;28;20055;-79
2022/03/14 18:23:06;;;;;;;0.00;0.00;;;;;;;25.86;25.45;102661.91;10512215;28;20060;-79
2022/03/14 18:28:08;;;;;;;0.00;0.00;;;;;;;26.86;23.44;102680.09;10531141;28;20055;-79
2022/03/14 18:33:09;;;;;;;0.68;0.52;;;;;;;25.29;25.28;102679.09;10535916;28;20122;-80
2022/03/14 18:38:11;;;;;;;0.75;0.47;;;;;;;25.00;26.06;102698.63;10521438;28;20059;-79
2022/03/14 18:43:14;;;;;;;0.77;0.40;;;;;;;25.13;25.79;102702.06;10518206;28;20507;-79
2022/03/14 18:48:15;;;;;;;0.00;0.00;;;;;;;26.58;23.83;102706.91;10529545;28;20083;-79
2022/03/14 18:53:17;;;;;;;0.00;0.00;;;;;;;24.10;27.71;102723.53;10519286;28;20135;-79
2022/03/14 18:58:23;;;;;;;1.27;0.52;;;;;;;23.72;28.57;102717.44;10519055;28;20491;-79
2022/03/14 19:03:26;;;;;;;0.15;0.10;;;;;;;25.69;25.45;102716.63;10516629;28;20101;-79
2022/03/14 19:08:29;;;;;;;1.95;1.27;;;;;;;23.76;28.05;102713.91;10525724;28;20040;-79
2022/03/14 19:13:31;;;;;;;0.70;0.40;;;;;;;24.89;26.97;102713.66;10514886;28;20310;-79
2022/03/14 19:18:38;;;;;;;0.00;0.00;;;;;;;28.91;21.13;102688.69;10518756;28;20134;-79
2022/03/14 19:23:40;;;;;;;0.00;0.00;;;;;;;29.36;20.48;102687.66;10542685;28;20083;-79
2022/03/14 19:28:42;;;;;;;0.00;0.00;;;;;;;29.25;20.58;102692.31;10527504;28;20104;-79
2022/03/14 19:33:44;;;;;;;0.00;0.00;;;;;;;29.16;20.21;102681.91;10506652;28;20505;-79
2022/03/14 19:38:47;;;;;;;0.55;0.55;;;;;;;29.17;20.49;102679.25;10520803;28;20464;-79
2022/03/14 19:43:50;;;;;;;0.00;0.00;;;;;;;28.80;20.72;102690.75;10525111;28;20048;-79
2022/03/14 19:48:52;;;;;;;0.32;0.32;;;;;;;27.43;22.51;102692.47;10531170;28;20120;-79
2022/03/14 19:53:53;;;;;;;0.00;0.00;;;;;;;28.43;21.03;102692.38;10539485;28;20047;-79
2022/03/14 19:58:55;;;;;;;0.00;0.00;;;;;;;29.05;20.37;102696.34;10539427;28;20071;-79
2022/03/14 20:03:57;;;;;;;0.00;0.00;;;;;;;28.79;20.48;102689.84;10520734;28;20040;-79
2022/03/14 20:09:00;;;;;;;0.00;0.00;;;;;;;28.68;20.63;102707.75;10539754;28;20071;-79
2022/03/14 20:14:04;;;;;;;0.00;0.00;;;;;;;28.38;20.98;102703.97;10520426;28;20126;-79
2022/03/14 20:19:07;;;;;;;0.00;0.00;;;;;;;27.05;22.03;102718.59;10517802;28;20109;-79
2022/03/14 20:24:09;;;;;;;0.32;0.32;;;;;;;21.44;31.19;102739.91;10528078;28;20491;-79
2022/03/14 20:29:10;;;;;;;0.00;0.00;;;;;;;25.43;25.22;102713.31;10545292;28;20036;-79
2022/03/14 20:34:13;;;;;;;2.20;2.08;;;;;;;27.91;21.57;102714.56;10527993;28;20060;-79
2022/03/14 20:39:15;;;;;;;0.00;0.00;;;;;;;26.90;22.18;102722.34;10538088;28;20131;-79
2022/03/14 20:44:16;;;;;;;0.00;0.00;;;;;;;26.50;23.25;102730.75;10537524;28;20489;-79
2022/03/14 20:49:18;;;;;;;0.00;0.00;;;;;;;22.30;29.33;102738.88;10538303;28;20078;-79
2022/03/14 20:54:20;;;;;;;0.85;0.85;;;;;;;21.46;31.13;102740.81;10518524;28;20530;-79
2022/03/14 20:59:21;;;;;;;0.00;0.00;;;;;;;24.57;26.76;102725.19;10536762;28;20491;-79
2022/03/14 21:04:24;;;;;;;0.00;0.00;;;;;;;26.98;22.14;102722.22;10514378;28;20487;-80
2022/03/14 21:09:26;;;;;;;0.00;0.00;;;;;;;25.53;23.50;102724.66;10516333;28;20048;-79
2022/03/14 21:14:31;;;;;;;0.00;0.00;;;;;;;26.94;21.85;102719.66;10532912;28;20071;-78
2022/03/14 21:19:34;;;;;;;0.08;0.08;;;;;;;26.45;22.48;102722.88;10529532;28;20036;-79
2022/03/14 21:24:36;;;;;;;0.00;0.00;;;;;;;26.08;22.79;102727.72;10538381;28;20066;-79
2022/03/14 21:29:38;;;;;;;0.00;0.00;;;;;;;25.82;22.72;102731.44;10540935;28;20063;-79
2022/03/14 21:34:39;;;;;;;0.00;0.00;;;;;;;25.54;22.93;102726.44;10504450;28;20048;-79
2022/03/14 21:39:41;;;;;;;0.00;0.00;;;;;;;25.38;23.33;102735.31;10514919;28;20071;-79
2022/03/14 21:44:44;;;;;;;0.00;0.00;;;;;;;23.40;25.75;102747.22;10501355;28;20510;-79
2022/03/14 21:49:46;;;;;;;0.10;0.10;;;;;;;21.01;30.06;102755.19;10529210;28;20118;-79
2022/03/14 21:54:48;;;;;;;0.57;0.43;;;;;;;22.27;27.73;102750.22;10510018;28;20548;-79
2022/03/14 21:59:49;;;;;;;1.35;0.93;;;;;;;21.14;29.57;102756.22;10517563;28;20044;-79
2022/03/14 22:04:51;;;;;;;0.00;0.00;;;;;;;24.33;24.54;102741.94;10530020;28;20067;-79
2022/03/14 22:09:53;;;;;;;0.00;0.00;;;;;;;25.50;22.92;102736.13;10547450;27;20060;-79
2022/03/14 22:14:55;;;;;;;0.00;0.00;;;;;;;24.83;22.93;102740.03;10522598;28;20061;-79
2022/03/14 22:19:58;;;;;;;0.00;0.00;;;;;;;25.07;23.04;102738.13;10522218;28;20094;-79
2022/03/14 22:25:00;;;;;;;0.00;0.00;;;;;;;23.97;24.35;102736.75;10558812;27;20138;-79
2022/03/14 22:30:05;;;;;;;0.00;0.00;;;;;;;24.34;24.36;102726.13;10516000;28;20127;-79
2022/03/14 22:35:12;;;;;;;0.00;0.00;;;;;;;25.16;23.37;102715.25;10528858;28;20032;-79
2022/03/14 22:40:14;;;;;;;0.00;0.00;;;;;;;25.44;22.64;102711.53;10513581;28;20461;-79
2022/03/14 22:45:16;;;;;;;0.00;0.00;;;;;;;24.47;23.42;102723.44;10524200;28;20149;-79
2022/03/14 22:50:17;;;;;;;0.00;0.00;;;;;;;24.50;23.51;102721.69;10524968;28;20119;-79
2022/03/14 22:55:19;;;;;;;2.97;2.72;;;;;;;24.89;23.52;102721.56;10509862;28;20073;-79
2022/03/14 23:00:27;;;;;;;2.67;2.45;;;;;;;19.89;31.29;102743.13;10517155;28;20122;-79
2022/03/14 23:05:29;;;;;;;0.40;0.40;;;;;;;22.15;27.43;102734.41;10550209;28;20534;-79
2022/03/14 23:15:52;;;;;;;0.00;0.00;;;;;;;24.87;23.63;102720.69;10520396;28;20491;-79
2022/03/14 23:20:54;;;;;;;0.00;0.00;;;;;;;25.39;22.96;102710.72;10522512;28;20058;-81
2022/03/14 23:26:00;;;;;;;0.00;0.00;;;;;;;24.66;23.94;102722.53;10520169;28;20044;-81